createdAt,value
2023-08-08T00:02:24.147Z,100298.81
2023-08-08T00:04:52.036Z,100300.09
2023-08-08T00:07:20.234Z,100296.25
2023-08-08T00:09:47.895Z,100297.00
2023-08-08T00:12:16.030Z,100296.22
2023-08-08T00:14:43.759Z,100290.00
2023-08-08T00:17:11.426Z,100287.84
2023-08-08T00:19:40.976Z,100302.06
2023-08-08T00:22:08.624Z,100296.69
2023-08-08T00:24:36.648Z,100292.78
2023-08-08T00:27:04.706Z,100289.25
2023-08-08T00:29:32.851Z,100290.09
2023-08-08T00:32:00.713Z,100296.41
2023-08-08T00:34:28.580Z,100301.91
2023-08-08T00:36:57.973Z,100301.34
2023-08-08T00:39:25.635Z,100301.56
2023-08-08T00:41:53.604Z,100316.94
2023-08-08T00:44:21.281Z,100297.75
2023-08-08T00:46:49.034Z,100310.78
2023-08-08T00:49:17.649Z,100306.03
2023-08-08T00:51:45.539Z,100304.03
2023-08-08T00:54:15.833Z,100307.44
2023-08-08T00:56:43.639Z,100307.59
2023-08-08T00:59:16.291Z,100298.03
2023-08-08T01:01:44.052Z,100310.34
2023-08-08T01:04:12.920Z,100300.88
2023-08-08T01:06:46.381Z,100311.69
2023-08-08T01:09:23.974Z,100297.34
2023-08-08T01:11:53.283Z,100305.25
2023-08-08T01:14:23.329Z,100320.75
2023-08-08T01:16:51.045Z,100315.13
2023-08-08T01:19:27.829Z,100308.56
2023-08-08T01:21:56.690Z,100319.59
2023-08-08T01:24:30.074Z,100304.59
2023-08-08T01:26:57.959Z,100304.25
2023-08-08T01:29:25.592Z,100301.22
2023-08-08T01:31:53.909Z,100309.78
2023-08-08T01:34:22.339Z,100304.59
2023-08-08T01:36:55.022Z,100296.81
2023-08-08T01:39:27.885Z,100300.00
2023-08-08T01:41:56.980Z,100303.25
2023-08-08T01:44:26.853Z,100297.25
2023-08-08T01:46:55.272Z,100305.81
2023-08-08T01:49:23.093Z,100299.91
2023-08-08T01:51:52.096Z,100292.03
2023-08-08T01:54:20.072Z,100297.88
2023-08-08T01:56:49.722Z,100293.38
2023-08-08T01:59:17.497Z,100290.41
2023-08-08T02:01:45.688Z,100284.53
2023-08-08T02:04:13.470Z,100288.06
2023-08-08T02:06:41.737Z,100287.47
2023-08-08T02:09:09.452Z,100268.69
2023-08-08T02:11:37.530Z,100280.22
2023-08-08T02:14:06.750Z,100282.06
2023-08-08T02:16:36.310Z,100277.97
2023-08-08T02:19:04.041Z,100281.97
2023-08-08T02:21:31.769Z,100278.38
2023-08-08T02:23:59.935Z,100272.38
2023-08-08T02:26:27.769Z,100267.16
2023-08-08T02:28:55.829Z,100274.00
2023-08-08T02:31:24.903Z,100276.13
2023-08-08T02:33:53.623Z,100276.13
2023-08-08T02:36:21.368Z,100256.84
2023-08-08T02:38:51.118Z,100270.53
2023-08-08T02:41:18.761Z,100271.75
2023-08-08T02:43:46.937Z,100277.25
2023-08-08T02:46:14.718Z,100275.34
2023-08-08T02:48:44.244Z,100268.63
2023-08-08T02:51:11.979Z,100276.38
2023-08-08T02:53:40.032Z,100268.41
2023-08-08T02:56:07.772Z,100263.31
2023-08-08T02:58:35.751Z,100263.53
2023-08-08T03:01:03.579Z,100265.53
2023-08-08T03:03:31.862Z,100269.41
2023-08-08T03:06:00.934Z,100267.28
2023-08-08T03:08:29.601Z,100266.47
2023-08-08T03:10:57.312Z,100265.53
2023-08-08T03:13:25.430Z,100256.69
2023-08-08T03:15:53.199Z,100251.16
2023-08-08T03:18:21.302Z,100258.63
2023-08-08T03:20:49.007Z,100257.63
2023-08-08T03:23:18.400Z,100254.66
2023-08-08T03:25:46.104Z,100261.00
2023-08-08T03:28:13.810Z,100251.78
2023-08-08T03:30:41.900Z,100250.78
2023-08-08T03:33:09.641Z,100260.09
2023-08-08T03:35:37.707Z,100255.28
2023-08-08T03:38:05.787Z,100257.66
2023-08-08T03:40:35.335Z,100256.91
2023-08-08T03:43:03.067Z,100258.03
2023-08-08T03:45:31.214Z,100258.66
2023-08-08T03:47:58.944Z,100260.59
2023-08-08T03:50:27.325Z,100257.03
2023-08-08T03:52:55.021Z,100261.59
2023-08-08T03:55:23.083Z,100262.22
2023-08-08T03:57:52.266Z,100259.59
2023-08-08T04:00:20.686Z,100264.59
2023-08-08T04:02:48.467Z,100261.53
2023-08-08T04:05:16.824Z,100256.72
2023-08-08T04:07:44.739Z,100258.75
2023-08-08T04:10:13.364Z,100266.19
2023-08-08T04:12:41.160Z,100261.31
2023-08-08T04:15:11.809Z,100261.19
2023-08-08T04:17:39.651Z,100257.63
2023-08-08T04:20:08.988Z,100256.81
2023-08-08T04:22:36.786Z,100254.97
2023-08-08T04:25:06.929Z,100252.75
2023-08-08T04:27:34.661Z,100259.97
2023-08-08T04:30:02.467Z,100250.78
2023-08-08T04:32:31.823Z,100245.78
2023-08-08T04:34:59.696Z,100246.00
2023-08-08T04:37:27.783Z,100245.16
2023-08-08T04:39:55.564Z,100241.81
2023-08-08T04:42:23.807Z,100260.06
2023-08-08T04:44:51.537Z,100247.13
2023-08-08T04:47:19.634Z,100243.84
2023-08-08T04:49:48.758Z,100249.66
2023-08-08T04:52:16.926Z,100250.56
2023-08-08T04:54:45.267Z,100247.81
2023-08-08T04:57:13.371Z,100258.91
2023-08-08T04:59:41.098Z,100251.59
2023-08-08T05:02:09.194Z,100251.16
2023-08-08T05:04:36.903Z,100261.97
2023-08-08T05:07:07.441Z,100257.88
2023-08-08T05:09:35.007Z,100273.22
2023-08-08T05:12:03.639Z,100256.53
2023-08-08T05:14:32.156Z,100254.84
2023-08-08T05:17:00.191Z,100262.47
2023-08-08T05:19:27.914Z,100266.63
2023-08-08T05:21:56.060Z,100253.38
2023-08-08T05:24:25.215Z,100259.44
2023-08-08T05:26:54.235Z,100273.22
2023-08-08T05:29:22.491Z,100268.56
2023-08-08T05:31:50.276Z,100266.22
2023-08-08T05:34:18.422Z,100266.63
2023-08-08T05:36:46.141Z,100264.31
2023-08-08T05:39:14.299Z,100259.28
2023-08-08T05:41:43.546Z,100261.94
2023-08-08T05:44:11.574Z,100260.91
2023-08-08T05:46:39.298Z,100255.91
2023-08-08T05:49:08.047Z,100258.34
2023-08-08T05:51:35.800Z,100275.47
2023-08-08T05:54:04.306Z,100263.59
2023-08-08T05:56:37.343Z,100264.81
2023-08-08T05:59:07.112Z,100264.03
2023-08-08T06:01:35.689Z,100265.38
2023-08-08T06:04:04.956Z,100261.03
2023-08-08T06:06:32.657Z,100260.41
2023-08-08T06:09:00.760Z,100263.31
2023-08-08T06:11:28.499Z,100254.06
2023-08-08T06:13:57.178Z,100260.78
2023-08-08T06:16:26.376Z,100268.41
2023-08-08T06:18:54.653Z,100273.19
2023-08-08T06:21:22.350Z,100276.69
2023-08-08T06:23:50.712Z,100273.75
2023-08-08T06:26:18.406Z,100260.53
2023-08-08T06:28:46.355Z,100281.56
2023-08-08T06:31:14.131Z,100276.16
2023-08-08T06:33:43.606Z,100270.72
2023-08-08T06:36:11.289Z,100268.88
2023-08-08T06:38:39.037Z,100263.72
2023-08-08T06:41:07.230Z,100259.50
2023-08-08T06:43:34.905Z,100258.69
2023-08-08T06:46:03.298Z,100276.06
2023-08-08T06:48:31.055Z,100277.03
2023-08-08T06:51:00.576Z,100276.09
2023-08-08T06:53:28.244Z,100270.56
2023-08-08T06:55:56.388Z,100279.03
2023-08-08T06:58:24.186Z,100270.28
2023-08-08T07:00:53.480Z,100271.56
2023-08-08T07:03:21.290Z,100274.97
2023-08-08T07:05:53.606Z,100268.50
2023-08-08T07:08:22.885Z,100264.56
2023-08-08T07:10:50.956Z,100279.69
2023-08-08T07:13:18.632Z,100286.66
2023-08-08T07:15:46.748Z,100264.41
2023-08-08T07:18:14.681Z,100282.94
2023-08-08T07:20:42.858Z,100285.09
2023-08-08T07:23:10.616Z,100281.34
2023-08-08T07:25:40.122Z,100282.03
2023-08-08T07:28:08.115Z,100281.63
2023-08-08T07:30:36.237Z,100295.63
2023-08-08T07:33:03.978Z,100280.72
2023-08-08T07:35:32.250Z,100295.50
2023-08-08T07:37:59.914Z,100296.00
2023-08-08T07:40:28.553Z,100282.66
2023-08-08T07:42:57.616Z,100273.88
2023-08-08T07:45:25.780Z,100287.53
2023-08-08T07:47:53.530Z,100287.53
2023-08-08T07:50:21.326Z,100290.47
2023-08-08T07:52:49.187Z,100290.47
2023-08-08T07:55:17.220Z,100287.09
2023-08-08T07:57:45.623Z,100279.13
2023-08-08T08:00:20.518Z,100274.25
2023-08-08T08:02:48.986Z,100311.97
2023-08-08T08:05:16.886Z,100284.47
2023-08-08T08:07:44.862Z,100302.38
2023-08-08T08:10:14.800Z,100293.25
2023-08-08T08:12:43.711Z,100297.66
2023-08-08T08:15:12.213Z,100300.09
2023-08-08T08:17:42.983Z,100282.06
2023-08-08T08:20:13.351Z,100293.59
2023-08-08T08:22:41.193Z,100283.69
2023-08-08T08:25:10.671Z,100276.34
2023-08-08T08:27:38.987Z,100272.47
2023-08-08T08:30:08.213Z,100274.88
2023-08-08T08:32:36.183Z,100284.97
2023-08-08T08:35:07.764Z,100271.47
2023-08-08T08:37:35.747Z,100271.44
2023-08-08T08:40:06.181Z,100274.03
2023-08-08T08:42:34.593Z,100270.28
2023-08-08T08:45:05.214Z,100273.03
2023-08-08T08:47:35.279Z,100280.84
2023-08-08T08:50:05.097Z,100292.00
2023-08-08T08:52:34.837Z,100279.47
2023-08-08T08:55:03.868Z,100285.34
2023-08-08T08:57:31.656Z,100284.22
2023-08-08T08:59:59.870Z,100279.81
2023-08-08T09:02:27.749Z,100282.09
2023-08-08T09:04:56.640Z,100297.53
2023-08-08T09:07:27.639Z,100284.13
2023-08-08T09:09:57.905Z,100290.47
2023-08-08T09:12:26.706Z,100285.91
2023-08-08T09:14:57.763Z,100277.88
2023-08-08T09:17:37.961Z,100288.75
2023-08-08T09:20:15.666Z,100272.38
2023-08-08T09:22:43.392Z,100272.81
2023-08-08T09:25:13.074Z,100276.06
2023-08-08T09:27:44.423Z,100283.44
2023-08-08T09:30:13.042Z,100260.59
2023-08-08T09:32:41.398Z,100266.66
2023-08-08T09:35:10.736Z,100264.34
2023-08-08T09:37:39.718Z,100266.09
2023-08-08T09:40:09.168Z,100260.94
2023-08-08T09:42:40.034Z,100265.97
2023-08-08T09:45:10.183Z,100261.22
2023-08-08T09:47:39.567Z,100262.03
2023-08-08T09:50:08.998Z,100267.56
2023-08-08T09:52:40.337Z,100256.81
2023-08-08T09:55:08.757Z,100250.81
2023-08-08T09:57:39.787Z,100253.97
2023-08-08T10:00:16.677Z,100263.53
2023-08-08T10:02:46.661Z,100260.63
2023-08-08T10:05:17.037Z,100244.13
2023-08-08T10:07:45.557Z,100252.53
2023-08-08T10:10:13.381Z,100244.13
2023-08-08T10:12:44.075Z,100252.88
2023-08-08T10:15:13.010Z,100255.59
2023-08-08T10:17:42.063Z,100245.63
2023-08-08T10:20:12.634Z,100252.59
2023-08-08T10:22:44.539Z,100236.13
2023-08-08T10:25:20.629Z,100229.00
2023-08-08T10:27:50.074Z,100220.06
2023-08-08T10:30:18.078Z,100221.44
2023-08-08T10:32:48.694Z,100229.28
2023-08-08T10:35:17.482Z,100227.13
2023-08-08T10:37:55.507Z,100212.47
2023-08-08T10:40:23.367Z,100211.81
2023-08-08T10:42:54.612Z,100223.28
2023-08-08T10:45:22.323Z,100231.94
2023-08-08T10:47:50.095Z,100231.56
2023-08-08T10:50:26.337Z,100216.16
2023-08-08T10:52:56.133Z,100223.97
2023-08-08T10:55:27.070Z,100210.78
2023-08-08T10:58:01.465Z,100224.19
2023-08-08T11:00:32.834Z,100232.88
2023-08-08T11:03:01.672Z,100238.25
2023-08-08T11:05:32.284Z,100233.75
2023-08-08T11:08:00.775Z,100213.66
2023-08-08T11:10:32.507Z,100208.88
2023-08-08T11:13:04.173Z,100207.34
2023-08-08T11:15:34.459Z,100212.84
2023-08-08T11:18:03.290Z,100204.63
2023-08-08T11:20:32.852Z,100218.13
2023-08-08T11:23:01.929Z,100214.22
2023-08-08T11:25:31.733Z,100221.22
2023-08-08T11:28:01.433Z,100216.56
2023-08-08T11:30:32.519Z,100215.88
2023-08-08T11:35:32.818Z,100221.88
2023-08-08T11:38:01.502Z,100242.63
2023-08-08T11:40:31.729Z,100251.31
2023-08-08T11:43:01.256Z,100262.47
2023-08-08T11:45:29.626Z,100284.88
2023-08-08T11:47:57.881Z,100278.13
2023-08-08T11:50:28.664Z,100282.81
2023-08-08T11:52:57.525Z,100272.28
2023-08-08T11:55:29.974Z,100254.09
2023-08-08T11:58:01.576Z,100251.03
2023-08-08T12:00:32.796Z,100244.81
2023-08-08T12:03:02.933Z,100237.56
2023-08-08T12:05:31.080Z,100249.56
2023-08-08T12:08:01.053Z,100227.84
2023-08-08T12:10:29.642Z,100231.63
2023-08-08T12:13:01.381Z,100245.34
2023-08-08T12:15:36.720Z,100237.16
2023-08-08T12:18:05.331Z,100236.25
2023-08-08T12:20:33.575Z,100229.66
2023-08-08T12:23:02.361Z,100231.28
2023-08-08T12:25:30.080Z,100233.81
2023-08-08T12:27:58.350Z,100254.44
2023-08-08T12:30:26.080Z,100231.84
2023-08-08T12:32:56.150Z,100238.28
2023-08-08T12:35:23.866Z,100234.88
2023-08-08T12:37:51.962Z,100234.16
2023-08-08T12:40:19.878Z,100239.44
2023-08-08T12:42:49.161Z,100250.44
2023-08-08T12:45:18.919Z,100243.69
2023-08-08T12:47:47.121Z,100236.13
2023-08-08T12:50:16.396Z,100257.19
2023-08-08T12:52:44.596Z,100242.16
2023-08-08T12:55:13.189Z,100244.69
2023-08-08T12:57:42.049Z,100237.06
2023-08-08T13:00:11.531Z,100229.41
2023-08-08T13:02:40.423Z,100219.91
2023-08-08T13:05:09.058Z,100228.50
2023-08-08T13:07:38.909Z,100225.59
2023-08-08T13:10:07.878Z,100235.53
2023-08-08T13:12:36.083Z,100243.88
2023-08-08T13:15:04.900Z,100241.13
2023-08-08T13:17:33.962Z,100234.06
2023-08-08T13:20:02.152Z,100224.22
2023-08-08T13:22:30.003Z,100233.47
2023-08-08T13:24:59.370Z,100233.09
2023-08-08T13:27:27.525Z,100228.69
2023-08-08T13:29:55.563Z,100231.47
2023-08-08T13:32:23.294Z,100224.63
2023-08-08T13:34:51.507Z,100212.34
2023-08-08T13:37:19.157Z,100232.88
2023-08-08T13:39:47.491Z,100212.38
2023-08-08T13:42:16.580Z,100233.03
2023-08-08T13:44:44.780Z,100233.91
2023-08-08T13:47:12.470Z,100230.06
2023-08-08T13:49:40.525Z,100244.28
2023-08-08T13:52:08.979Z,100275.13
2023-08-08T13:54:38.039Z,100260.22
2023-08-08T13:57:06.104Z,100254.50
2023-08-08T13:59:35.611Z,100244.44
2023-08-08T14:02:03.662Z,100234.50
2023-08-08T14:04:32.205Z,100240.78
2023-08-08T14:07:00.370Z,100229.31
2023-08-08T14:09:29.166Z,100210.56
2023-08-08T14:11:56.863Z,100207.00
2023-08-08T14:14:24.995Z,100213.50
2023-08-08T14:16:55.303Z,100207.13
2023-08-08T14:19:24.535Z,100208.78
2023-08-08T14:21:52.233Z,100200.44
2023-08-08T14:24:20.342Z,100203.34
2023-08-08T14:26:48.190Z,100203.88
2023-08-08T14:29:15.874Z,100204.88
2023-08-08T14:31:54.722Z,100213.34
2023-08-08T14:34:33.422Z,100226.69
2023-08-08T14:37:02.179Z,100237.28
2023-08-08T14:39:30.190Z,100220.53
2023-08-08T14:41:59.392Z,100235.88
2023-08-08T14:44:28.084Z,100243.19
2023-08-08T14:46:56.248Z,100250.59
2023-08-08T14:49:26.613Z,100252.91
2023-08-08T14:51:56.147Z,100256.16
2023-08-08T14:54:24.142Z,100271.91
2023-08-08T14:56:52.234Z,100268.66
2023-08-08T14:59:20.078Z,100266.47
2023-08-08T15:01:48.518Z,100274.59
2023-08-08T15:04:16.521Z,100268.91
2023-08-08T15:06:44.661Z,100274.56
2023-08-08T15:09:14.292Z,100270.63
2023-08-08T15:11:42.424Z,100270.88
2023-08-08T15:14:10.150Z,100270.63
2023-08-08T15:16:38.393Z,100252.69
2023-08-08T15:19:07.228Z,100279.34
2023-08-08T15:21:35.436Z,100277.81
2023-08-08T15:24:03.296Z,100280.47
2023-08-08T15:26:32.658Z,100272.97
2023-08-08T15:29:00.459Z,100271.56
2023-08-08T15:31:30.450Z,100258.63
2023-08-08T15:33:58.241Z,100264.28
2023-08-08T15:36:26.428Z,100269.00
2023-08-08T15:38:54.165Z,100275.72
2023-08-08T15:41:22.426Z,100283.81
2023-08-08T15:43:51.649Z,100331.91
2023-08-08T15:46:20.120Z,100324.94
2023-08-08T15:48:47.828Z,100343.75
2023-08-08T15:51:15.949Z,100320.00
2023-08-08T15:53:43.637Z,100310.22
2023-08-08T15:56:11.804Z,100293.28
2023-08-08T15:58:40.637Z,100277.56
2023-08-08T16:01:09.794Z,100269.47
2023-08-08T16:03:37.866Z,100248.31
2023-08-08T16:06:05.649Z,100251.78
2023-08-08T16:08:33.729Z,100225.72
2023-08-08T16:11:01.475Z,100213.16
2023-08-08T16:13:29.572Z,100225.06
2023-08-08T16:15:57.249Z,100228.59
2023-08-08T16:18:26.676Z,100217.69
2023-08-08T16:20:54.322Z,100218.97
2023-08-08T16:23:23.021Z,100223.91
2023-08-08T16:25:50.759Z,100225.53
2023-08-08T16:28:18.795Z,100264.59
2023-08-08T16:30:46.509Z,100274.88
2023-08-08T16:33:17.721Z,100294.56
2023-08-08T16:35:46.847Z,100294.88
2023-08-08T16:38:15.606Z,100299.94
2023-08-08T16:40:43.324Z,100311.66
2023-08-08T16:43:12.647Z,100315.72
2023-08-08T16:45:40.712Z,100326.47
2023-08-08T16:48:08.763Z,100332.16
2023-08-08T16:50:37.006Z,100334.44
2023-08-08T16:53:06.508Z,100324.16
2023-08-08T16:55:34.242Z,100308.41
2023-08-08T16:58:02.297Z,100305.16
2023-08-08T17:00:30.209Z,100306.09
2023-08-08T17:02:58.660Z,100300.91
2023-08-08T17:05:26.550Z,100310.66
2023-08-08T17:07:54.309Z,100305.78
2023-08-08T17:10:23.747Z,100303.31
2023-08-08T17:12:51.470Z,100310.84
2023-08-08T17:15:20.408Z,100299.28
2023-08-08T17:17:48.129Z,100304.13
2023-08-08T17:20:16.236Z,100293.56
2023-08-08T17:22:44.259Z,100299.28
2023-08-08T17:25:12.436Z,100303.00
2023-08-08T17:27:41.572Z,100287.72
2023-08-08T17:30:11.721Z,100294.50
2023-08-08T17:32:39.960Z,100285.59
2023-08-08T17:35:09.221Z,100292.25
2023-08-08T17:37:36.911Z,100306.88
2023-08-08T17:40:05.585Z,100298.91
2023-08-08T17:42:33.332Z,100299.06
2023-08-08T17:45:03.157Z,100308.81
2023-08-08T17:47:32.064Z,100297.94
2023-08-08T17:50:00.461Z,100291.41
2023-08-08T17:52:28.207Z,100284.28
2023-08-08T17:54:56.359Z,100283.97
2023-08-08T17:57:24.050Z,100292.25
2023-08-08T17:59:52.313Z,100288.50
2023-08-08T18:02:21.511Z,100286.06
2023-08-08T18:04:49.821Z,100289.97
2023-08-08T18:07:17.564Z,100292.75
2023-08-08T18:09:48.743Z,100293.88
2023-08-08T18:12:17.934Z,100299.41
2023-08-08T18:14:45.651Z,100306.69
2023-08-08T18:17:13.819Z,100305.91
2023-08-08T18:19:42.885Z,100303.31
2023-08-08T18:22:10.991Z,100301.50
2023-08-08T18:24:38.694Z,100302.81
2023-08-08T18:27:06.801Z,100299.22
2023-08-08T18:29:34.606Z,100320.41
2023-08-08T18:32:03.343Z,100326.38
2023-08-08T18:34:31.739Z,100324.41
2023-08-08T18:37:01.102Z,100326.53
2023-08-08T18:39:28.821Z,100327.19
2023-08-08T18:41:56.904Z,100332.91
2023-08-08T18:44:24.693Z,100335.13
2023-08-08T18:46:52.650Z,100341.34
2023-08-08T18:49:20.337Z,100334.66
2023-08-08T18:51:48.574Z,100343.44
2023-08-08T18:54:17.734Z,100353.53
2023-08-08T18:56:45.798Z,100348.50
2023-08-08T18:59:13.867Z,100354.69
2023-08-08T19:01:41.996Z,100357.59
2023-08-08T19:04:09.754Z,100359.41
2023-08-08T19:06:37.848Z,100370.16
2023-08-08T19:09:09.380Z,100364.59
2023-08-08T19:11:39.257Z,100360.22
2023-08-08T19:14:06.958Z,100367.84
2023-08-08T19:16:36.806Z,100375.16
2023-08-08T19:19:04.958Z,100372.09
2023-08-08T19:21:32.747Z,100375.06
2023-08-08T19:24:01.016Z,100382.22
2023-08-08T19:26:28.917Z,100374.72
2023-08-08T19:28:58.701Z,100377.47
2023-08-08T19:31:26.410Z,100375.19
2023-08-08T19:34:05.423Z,100365.41
2023-08-08T19:36:34.661Z,100368.00
2023-08-08T19:39:02.818Z,100368.19
2023-08-08T19:41:30.567Z,100367.50
2023-08-08T19:43:59.699Z,100356.94
2023-08-08T19:46:27.952Z,100367.19
2023-08-08T19:48:55.791Z,100360.53
2023-08-08T19:51:24.264Z,100366.25
2023-08-08T19:53:52.050Z,100366.03
2023-08-08T19:56:19.842Z,100375.44
2023-08-08T19:58:48.451Z,100369.25
2023-08-08T20:01:17.855Z,100364.06
2023-08-08T20:03:45.727Z,100365.00
2023-08-08T20:06:14.072Z,100357.56
2023-08-08T20:08:41.810Z,100354.41
2023-08-08T20:11:09.632Z,100371.81
2023-08-08T20:13:37.694Z,100343.22
2023-08-08T20:16:05.596Z,100366.94
2023-08-08T20:18:35.369Z,100366.28
2023-08-08T20:21:03.179Z,100368.06
2023-08-08T20:23:31.327Z,100367.38
2023-08-08T20:25:59.152Z,100368.28
2023-08-08T20:28:28.286Z,100357.47
2023-08-08T20:30:56.825Z,100362.72
2023-08-08T20:33:24.611Z,100359.16
2023-08-08T20:35:54.335Z,100372.81
2023-08-08T20:38:22.031Z,100369.38
2023-08-08T20:40:52.371Z,100373.22
2023-08-08T20:43:20.082Z,100377.88
2023-08-08T20:45:48.345Z,100371.19
2023-08-08T20:48:16.072Z,100367.22
2023-08-08T20:50:44.123Z,100376.78
2023-08-08T20:53:13.856Z,100377.41
2023-08-08T20:55:41.991Z,100391.84
2023-08-08T20:58:09.751Z,100384.34
2023-08-08T21:00:38.050Z,100393.75
2023-08-08T21:03:05.866Z,100397.34
2023-08-08T21:05:34.025Z,100399.16
2023-08-08T21:08:01.792Z,100387.44
2023-08-08T21:10:31.496Z,100394.19
2023-08-08T21:12:59.221Z,100400.22
2023-08-08T21:15:27.755Z,100396.53
2023-08-08T21:17:55.713Z,100404.81
2023-08-08T21:20:24.116Z,100417.66
2023-08-08T21:22:52.041Z,100451.06
2023-08-08T21:25:20.173Z,100458.94
2023-08-08T21:27:49.239Z,100445.63
2023-08-08T21:30:17.365Z,100440.13
2023-08-08T21:32:45.104Z,100436.72
2023-08-08T21:35:12.808Z,100442.25
2023-08-08T21:37:41.596Z,100443.81
2023-08-08T21:40:10.017Z,100444.94
2023-08-08T21:42:38.943Z,100443.00
2023-08-08T21:45:09.147Z,100436.28
2023-08-08T21:47:37.335Z,100441.50
2023-08-08T21:50:05.390Z,100440.59
2023-08-08T21:52:33.561Z,100441.84
2023-08-08T21:55:01.336Z,100434.31
2023-08-08T21:57:29.407Z,100444.31
2023-08-08T21:59:57.058Z,100437.50
2023-08-08T22:02:26.938Z,100439.13
2023-08-08T22:04:54.767Z,100442.91
2023-08-08T22:07:25.043Z,100435.16
2023-08-08T22:09:52.779Z,100433.22
2023-08-08T22:12:20.762Z,100425.97
2023-08-08T22:14:48.490Z,100433.91
2023-08-08T22:17:16.469Z,100425.97
2023-08-08T22:19:45.501Z,100428.38
2023-08-08T22:22:13.770Z,100417.69
2023-08-08T22:24:41.533Z,100421.53
2023-08-08T22:27:09.646Z,100427.84
2023-08-08T22:29:37.996Z,100432.16
2023-08-08T22:32:06.763Z,100426.13
2023-08-08T22:34:38.912Z,100428.72
2023-08-08T22:37:08.364Z,100434.03
2023-08-08T22:39:36.068Z,100443.81
2023-08-08T22:42:04.024Z,100441.56
2023-08-08T22:44:31.650Z,100433.47
2023-08-08T22:47:00.032Z,100428.78
2023-08-08T22:49:27.922Z,100439.00
2023-08-08T22:51:55.631Z,100439.22
2023-08-08T22:54:25.039Z,100430.94
2023-08-08T22:56:52.694Z,100437.25
2023-08-08T22:59:20.742Z,100440.84
2023-08-08T23:01:48.419Z,100438.88
2023-08-08T23:04:16.429Z,100433.47
2023-08-08T23:06:44.073Z,100425.53
2023-08-08T23:09:12.170Z,100430.09
2023-08-08T23:11:41.194Z,100428.97
2023-08-08T23:14:09.430Z,100430.59
2023-08-08T23:16:37.157Z,100424.41
2023-08-08T23:19:05.240Z,100422.78
2023-08-08T23:21:32.901Z,100433.81
2023-08-08T23:24:01.006Z,100435.88
2023-08-08T23:26:28.704Z,100426.47
2023-08-08T23:28:58.545Z,100425.84
2023-08-08T23:31:26.195Z,100433.72
2023-08-08T23:33:54.692Z,100436.88
2023-08-08T23:36:22.494Z,100428.88
2023-08-08T23:38:50.564Z,100426.59
2023-08-08T23:41:19.126Z,100409.50
2023-08-08T23:43:47.176Z,100421.88
2023-08-08T23:46:16.474Z,100415.84
2023-08-08T23:48:44.863Z,100415.63
2023-08-08T23:51:13.044Z,100413.84
2023-08-08T23:53:41.155Z,100412.28
2023-08-08T23:56:08.827Z,100418.31
2023-08-08T23:58:36.861Z,100418.13
